Time;durP1;ratioP1;P1;durP2;ratioP2;P2;SDS_P1;SDS_P2;PMS_P1;PMS_P2;Temp;Humidity;BMP_temperature;BMP_pressure;BME280_temperature;BME280_humidity;BME280_pressure;Samples;Min_cycle;Max_cycle;Signal;HPM_P1;HPM_P2
2021/05/10 00:00:24;;;;;;;4.00;3.70;;;21.50;62.10;;;;;;5069983;28;20185;-75
2021/05/10 00:02:50;;;;;;;3.97;3.77;;;21.50;62.50;;;;;;5071597;28;20563;-75
2021/05/10 00:05:15;;;;;;;3.87;3.57;;;21.50;62.50;;;;;;5070839;28;20202;-75
2021/05/10 00:07:41;;;;;;;4.10;3.80;;;21.60;62.20;;;;;;5071827;28;20181;-75
2021/05/10 00:10:08;;;;;;;3.97;3.77;;;21.50;62.20;;;;;;5072109;28;20165;-76
2021/05/10 00:12:33;;;;;;;4.37;4.07;;;21.60;62.70;;;;;;5071829;28;20476;-75
2021/05/10 00:14:59;;;;;;;3.73;3.53;;;21.60;62.40;;;;;;5071665;28;20430;-75
2021/05/10 00:17:25;;;;;;;5.80;4.00;;;21.70;62.60;;;;;;5070972;28;20557;-75
2021/05/10 00:19:50;;;;;;;4.10;3.87;;;21.70;61.70;;;;;;5072185;28;20173;-75
2021/05/10 00:22:16;;;;;;;3.87;3.57;;;21.70;63.40;;;;;;5074983;28;20584;-75
2021/05/10 00:24:42;;;;;;;3.40;3.30;;;21.70;63.40;;;;;;5062760;28;20228;-75
2021/05/10 00:27:08;;;;;;;4.07;3.87;;;21.60;61.90;;;;;;5038473;28;20242;-74
2021/05/10 00:29:33;;;;;;;3.53;3.33;;;21.60;62.10;;;;;;5037148;28;20192;-74
2021/05/10 00:32:02;;;;;;;4.00;3.47;;;21.60;62.10;;;;;;5055538;28;20182;-75
2021/05/10 00:34:28;;;;;;;3.93;3.73;;;21.60;62.20;;;;;;5054410;28;20189;-75
2021/05/10 00:36:54;;;;;;;4.20;4.00;;;21.60;62.40;;;;;;5055708;28;20408;-75
2021/05/10 00:39:21;;;;;;;4.30;3.90;;;21.50;62.10;;;;;;5054322;28;20181;-75
2021/05/10 00:41:47;;;;;;;3.80;3.60;;;21.50;62.60;;;;;;5055670;28;20457;-75
2021/05/10 00:44:13;;;;;;;4.20;3.80;;;21.50;62.10;;;;;;5054683;28;20432;-78
2021/05/10 00:46:40;;;;;;;3.87;3.67;;;21.60;62.20;;;;;;5055629;28;20504;-75
2021/05/10 00:49:05;;;;;;;5.97;3.97;;;21.50;62.60;;;;;;5055592;28;20486;-75
2021/05/10 00:51:32;;;;;;;4.13;3.90;;;21.50;62.30;;;;;;5054148;28;20452;-75
2021/05/10 00:53:57;;;;;;;3.97;3.60;;;21.60;63.10;;;;;;5055142;28;20213;-75
2021/05/10 00:56:24;;;;;;;4.00;3.80;;;21.70;65.50;;;;;;5054433;28;20904;-75
2021/05/10 00:58:50;;;;;;;3.50;3.30;;;21.70;66.70;;;;;;5055311;28;20205;-75
2021/05/10 01:01:16;;;;;;;3.47;3.37;;;21.70;67.90;;;;;;5054371;28;20526;-75
2021/05/10 01:03:44;;;;;;;4.90;3.90;;;21.70;65.40;;;;;;5055239;28;20516;-75
2021/05/10 01:06:09;;;;;;;4.10;3.50;;;21.70;67.50;;;;;;5054842;28;20542;-75
2021/05/10 01:08:35;;;;;;;5.80;3.83;;;21.70;67.30;;;;;;5054662;28;20416;-75
2021/05/10 01:11:01;;;;;;;4.07;3.87;;;21.60;67.00;;;;;;5055074;28;20796;-75
2021/05/10 01:13:27;;;;;;;4.30;3.90;;;21.50;66.20;;;;;;5054234;28;20264;-75
2021/05/10 01:15:53;;;;;;;4.10;3.80;;;21.50;68.50;;;;;;5036628;28;20379;-75
2021/05/10 01:18:22;;;;;;;3.93;3.67;;;21.50;70.00;;;;;;5054208;28;20181;-75
2021/05/10 01:20:50;;;;;;;4.10;3.90;;;21.40;70.30;;;;;;5055001;28;20495;-75
2021/05/10 01:23:16;;;;;;;3.80;3.50;;;21.30;68.50;;;;;;5053861;28;20476;-78
2021/05/10 01:25:42;;;;;;;4.40;4.10;;;21.20;66.60;;;;;;5054659;28;20424;-74
2021/05/10 01:28:08;;;;;;;4.77;4.37;;;21.20;69.30;;;;;;5054494;28;20511;-75
2021/05/10 01:30:36;;;;;;;4.40;4.10;;;21.10;69.10;;;;;;5053917;28;20782;-75
2021/05/10 01:33:05;;;;;;;4.47;4.27;;;21.10;71.00;;;;;;5036704;28;20428;-75
2021/05/10 01:35:36;;;;;;;4.90;4.23;;;21.00;71.50;;;;;;5053812;28;20404;-75
2021/05/10 01:38:03;;;;;;;4.00;3.80;;;21.00;72.10;;;;;;5054287;28;20474;-74
2021/05/10 01:40:29;;;;;;;4.17;3.97;;;20.90;69.00;;;;;;5053558;28;20439;-75
2021/05/10 01:42:55;;;;;;;3.93;3.73;;;20.90;69.00;;;;;;5054204;28;20944;-75
2021/05/10 01:45:21;;;;;;;4.13;3.73;;;20.90;70.40;;;;;;5053739;28;20276;-75
2021/05/10 01:47:47;;;;;;;4.27;4.07;;;20.90;72.90;;;;;;5053675;28;20518;-75
2021/05/10 01:50:18;;;;;;;4.60;4.33;;;20.90;72.80;;;;;;5054402;28;20178;-75
2021/05/10 01:52:48;;;;;;;4.33;4.03;;;20.80;72.10;;;;;;5036383;28;20630;-75
2021/05/10 01:55:15;;;;;;;3.97;3.77;;;20.80;71.90;;;;;;5054469;28;20758;-77
2021/05/10 01:57:47;;;;;;;3.80;3.60;;;20.80;75.00;;;;;;5053494;28;20413;-75
2021/05/10 02:00:18;;;;;;;4.00;3.70;;;20.80;75.20;;;;;;5054233;28;20400;-74
2021/05/10 02:02:44;;;;;;;4.30;4.00;;;20.70;74.80;;;;;;5053813;28;20452;-75
2021/05/10 02:05:16;;;;;;;4.30;3.90;;;20.70;75.00;;;;;;5036433;28;20776;-74
2021/05/10 02:07:53;;;;;;;4.23;4.03;;;20.70;76.70;;;;;;5053274;28;20186;-75
2021/05/10 02:10:26;;;;;;;4.97;4.67;;;20.60;76.50;;;;;;5053041;28;20416;-77
2021/05/10 02:13:03;;;;;;;4.70;4.50;;;20.60;78.10;;;;;;5053925;28;20428;-75
2021/05/10 02:15:32;;;;;;;4.77;4.40;;;20.60;77.20;;;;;;5052790;28;20416;-75
2021/05/10 02:17:58;;;;;;;4.80;4.47;;;20.50;76.00;;;;;;5053674;28;20447;-75
2021/05/10 02:20:26;;;;;;;4.63;4.33;;;20.50;76.40;;;;;;5052967;28;20416;-75
2021/05/10 02:23:02;;;;;;;4.47;4.07;;;20.50;76.00;;;;;;5053597;28;20834;-74
2021/05/10 02:25:31;;;;;;;4.50;4.20;;;20.40;76.00;;;;;;5052480;28;20452;-75
2021/05/10 02:27:57;;;;;;;5.20;4.70;;;20.40;75.90;;;;;;5053704;28;20778;-74
2021/05/10 02:30:31;;;;;;;4.50;4.20;;;20.40;76.70;;;;;;5052280;28;20431;-75
2021/05/10 02:32:58;;;;;;;4.10;3.80;;;20.40;75.30;;;;;;5053547;28;20394;-74
2021/05/10 02:35:24;;;;;;;3.70;3.50;;;20.30;73.70;;;;;;5052672;28;20469;-75
2021/05/10 02:37:51;;;;;;;4.03;3.83;;;20.40;69.10;;;;;;5053429;28;20428;-74
2021/05/10 02:40:18;;;;;;;4.20;4.00;;;20.40;67.80;;;;;;5052977;28;20253;-77
2021/05/10 02:42:45;;;;;;;3.70;3.40;;;20.50;67.80;;;;;;5034193;28;20460;-75
2021/05/10 02:45:11;;;;;;;3.87;3.57;;;20.60;67.10;;;;;;5053440;28;20779;-75
2021/05/10 02:47:38;;;;;;;4.33;4.03;;;20.70;66.00;;;;;;5052186;28;20451;-75
2021/05/10 02:50:06;;;;;;;4.17;3.87;;;20.80;65.80;;;;;;5052990;28;20417;-75
2021/05/10 02:52:33;;;;;;;3.60;3.50;;;20.90;65.90;;;;;;5052385;28;20431;-75
2021/05/10 02:54:59;;;;;;;3.97;3.77;;;20.90;66.10;;;;;;5035043;28;20748;-75
2021/05/10 02:57:25;;;;;;;4.43;4.13;;;21.00;66.40;;;;;;5052562;28;20423;-75
2021/05/10 02:59:51;;;;;;;4.20;4.00;;;21.00;67.20;;;;;;5053243;28;20440;-75
2021/05/10 03:02:17;;;;;;;4.40;4.13;;;21.10;68.20;;;;;;5052437;28;20889;-75
2021/05/10 03:04:43;;;;;;;4.00;3.70;;;21.00;67.70;;;;;;5052058;28;20169;-75
2021/05/10 03:07:09;;;;;;;3.93;3.73;;;21.10;68.10;;;;;;5052653;28;20930;-75
2021/05/10 03:09:34;;;;;;;4.40;4.20;;;21.10;69.40;;;;;;5051974;28;20185;-75
2021/05/10 03:12:00;;;;;;;4.67;4.27;;;21.10;68.20;;;;;;5052800;28;20181;-77
2021/05/10 03:14:26;;;;;;;4.03;3.83;;;21.00;67.70;;;;;;5051821;28;20299;-77
2021/05/10 03:16:52;;;;;;;4.37;4.03;;;21.00;67.70;;;;;;5034769;28;20507;-76
2021/05/10 03:19:18;;;;;;;4.43;4.13;;;20.90;67.40;;;;;;5052233;28;20582;-77
2021/05/10 03:21:45;;;;;;;4.23;4.03;;;20.90;67.30;;;;;;5052189;28;20205;-77
2021/05/10 03:24:11;;;;;;;4.37;4.17;;;20.80;67.50;;;;;;5052516;28;20609;-76
2021/05/10 03:26:38;;;;;;;4.67;4.37;;;20.70;67.70;;;;;;5051737;28;20424;-76
2021/05/10 03:29:06;;;;;;;4.27;4.00;;;20.70;67.90;;;;;;5052531;28;20412;-76
2021/05/10 03:31:32;;;;;;;4.30;4.10;;;20.80;69.80;;;;;;5033637;28;20432;-77
2021/05/10 03:33:59;;;;;;;4.43;4.13;;;20.80;70.90;;;;;;5052216;28;20492;-77
2021/05/10 03:36:24;;;;;;;4.50;4.30;;;20.80;72.40;;;;;;5051327;28;20412;-77
2021/05/10 03:38:50;;;;;;;4.97;4.50;;;20.80;71.60;;;;;;5052070;28;20800;-76
2021/05/10 03:41:16;;;;;;;5.37;4.87;;;20.80;70.10;;;;;;5052288;28;20216;-76
2021/05/10 03:43:42;;;;;;;4.80;4.40;;;20.70;70.60;;;;;;5051039;28;20178;-77
2021/05/10 03:46:07;;;;;;;4.27;4.00;;;20.70;70.80;;;;;;5034176;28;20537;-77
2021/05/10 03:48:33;;;;;;;3.93;3.83;;;20.70;70.90;;;;;;5051465;28;20280;-77
2021/05/10 03:50:59;;;;;;;5.20;4.73;;;20.70;74.20;;;;;;5052358;28;20264;-77
2021/05/10 03:53:25;;;;;;;7.13;6.43;;;20.60;74.20;;;;;;5050884;28;20178;-78
2021/05/10 03:55:51;;;;;;;6.07;5.57;;;20.60;75.70;;;;;;5051114;28;20424;-76
2021/05/10 03:58:17;;;;;;;4.80;4.57;;;20.60;75.40;;;;;;5052143;28;20652;-76
2021/05/10 04:00:43;;;;;;;6.27;5.63;;;20.50;76.30;;;;;;5051148;28;20412;-77
2021/05/10 04:03:11;;;;;;;5.30;5.00;;;20.40;75.80;;;;;;5051990;28;20508;-77
2021/05/10 04:16:06;;;;;;;4.23;4.03;;;20.20;74.80;;;;;;5052329;28;20419;-77
2021/05/10 04:18:33;;;;;;;4.00;3.80;;;20.00;70.80;;;;;;5051205;28;20524;-77
2021/05/10 04:20:59;;;;;;;5.27;4.90;;;20.00;71.80;;;;;;5051858;28;20412;-77
2021/05/10 04:23:27;;;;;;;4.57;4.27;;;20.00;73.60;;;;;;5051271;28;20419;-79
2021/05/10 04:25:54;;;;;;;3.67;3.47;;;20.10;73.00;;;;;;5051909;28;20767;-76
2021/05/10 04:28:21;;;;;;;4.90;4.60;;;20.10;72.50;;;;;;5051869;28;20418;-77
2021/05/10 04:30:48;;;;;;;15.27;13.77;;;20.20;73.20;;;;;;5033130;28;20986;-76
2021/05/10 04:33:14;;;;;;;4.93;4.63;;;20.20;71.10;;;;;;5051785;28;20773;-76
2021/05/10 04:35:40;;;;;;;5.60;5.20;;;20.20;70.30;;;;;;5050712;28;21003;-76
2021/05/10 04:38:12;;;;;;;4.13;3.93;;;20.20;70.60;;;;;;5051399;28;20912;-77
2021/05/10 04:40:39;;;;;;;5.00;4.60;;;20.30;71.30;;;;;;5050972;28;20400;-77
2021/05/10 04:43:06;;;;;;;6.00;5.43;;;20.30;71.00;;;;;;5051381;28;20463;-77
2021/05/10 04:45:32;;;;;;;6.43;5.83;;;20.30;70.70;;;;;;5050536;28;20515;-77
2021/05/10 04:47:57;;;;;;;6.83;5.60;;;20.40;70.10;;;;;;5051412;28;20424;-77
2021/05/10 04:50:23;;;;;;;5.67;5.37;;;20.40;70.80;;;;;;5051427;28;20408;-77
2021/05/10 04:52:49;;;;;;;4.30;3.90;;;20.50;70.50;;;;;;5050658;28;20552;-77
2021/05/10 04:55:15;;;;;;;3.83;3.50;;;20.50;70.60;;;;;;5051661;28;20568;-76
2021/05/10 04:57:43;;;;;;;7.00;4.03;;;20.50;69.90;;;;;;5050751;28;20173;-77
2021/05/10 05:00:11;;;;;;;5.70;5.17;;;20.60;70.40;;;;;;5051303;28;20826;-77
2021/05/10 05:02:37;;;;;;;5.07;4.67;;;20.60;70.10;;;;;;5050687;28;20513;-77
2021/05/10 05:05:04;;;;;;;3.80;3.60;;;20.70;69.30;;;;;;5051534;28;20401;-76
2021/05/10 05:07:30;;;;;;;4.30;4.00;;;20.70;69.30;;;;;;5053294;28;20638;-77
2021/05/10 05:09:56;;;;;;;3.60;3.40;;;20.60;68.40;;;;;;5054949;28;20416;-76
2021/05/10 05:12:22;;;;;;;3.90;3.80;;;20.60;69.20;;;;;;5055406;28;20513;-76
2021/05/10 05:14:47;;;;;;;3.40;3.30;;;20.70;69.20;;;;;;5053947;28;20419;-76
2021/05/10 05:17:13;;;;;;;3.87;3.67;;;20.70;68.50;;;;;;5054647;28;20182;-76
2021/05/10 05:19:39;;;;;;;4.30;4.00;;;20.70;68.30;;;;;;5053414;28;20264;-76
2021/05/10 05:22:04;;;;;;;3.27;3.10;;;20.80;69.40;;;;;;5054436;28;20213;-77
2021/05/10 05:24:30;;;;;;;4.07;3.67;;;20.80;68.50;;;;;;5053631;28;20230;-78
2021/05/10 05:26:56;;;;;;;3.37;3.07;;;20.80;68.40;;;;;;5037120;28;20178;-76
2021/05/10 05:29:23;;;;;;;3.10;2.90;;;20.90;69.00;;;;;;5054503;28;20679;-76
2021/05/10 05:31:49;;;;;;;4.00;3.80;;;20.90;68.40;;;;;;5054240;28;20234;-76
2021/05/10 05:34:16;;;;;;;5.40;3.63;;;20.90;69.20;;;;;;5054601;28;20423;-77
2021/05/10 05:36:42;;;;;;;3.93;3.27;;;20.90;69.00;;;;;;5053667;28;20424;-77
2021/05/10 05:39:08;;;;;;;4.73;4.17;;;20.90;70.20;;;;;;5053997;28;20416;-76
2021/05/10 05:41:35;;;;;;;4.20;3.90;;;20.90;71.60;;;;;;5053528;28;20201;-76
2021/05/10 05:44:04;;;;;;;3.37;3.20;;;20.90;72.50;;;;;;5054462;28;20174;-76
2021/05/10 05:46:37;;;;;;;3.73;3.43;;;20.80;72.70;;;;;;5053381;28;20900;-78
2021/05/10 05:49:03;;;;;;;2.97;2.87;;;20.90;73.60;;;;;;5054193;28;20430;-77
2021/05/10 05:51:29;;;;;;;3.20;2.90;;;20.80;74.30;;;;;;5036107;28;20424;-78
2021/05/10 05:53:55;;;;;;;2.93;2.73;;;20.70;73.10;;;;;;5053852;28;20423;-76
2021/05/10 05:56:22;;;;;;;3.37;3.17;;;20.70;73.90;;;;;;5054182;28;20178;-76
2021/05/10 05:58:51;;;;;;;3.43;3.23;;;20.60;73.80;;;;;;5053469;28;20423;-76
2021/05/10 06:01:17;;;;;;;5.93;3.90;;;20.70;74.70;;;;;;5053899;28;20491;-76
2021/05/10 06:03:43;;;;;;;4.33;3.10;;;20.70;74.10;;;;;;5052636;28;21057;-76
2021/05/10 06:06:10;;;;;;;4.00;3.70;;;20.70;73.90;;;;;;5053729;28;20503;-76
2021/05/10 06:08:37;;;;;;;3.87;3.37;;;20.80;74.20;;;;;;5052446;28;20852;-76
2021/05/10 06:11:04;;;;;;;3.50;3.30;;;20.80;73.80;;;;;;5053716;28;20459;-79
2021/05/10 06:13:30;;;;;;;3.80;3.60;;;20.70;74.00;;;;;;5053651;28;20404;-79
2021/05/10 06:15:57;;;;;;;3.77;3.57;;;20.70;74.30;;;;;;5053709;28;20420;-78
2021/05/10 06:18:24;;;;;;;3.30;3.10;;;20.70;75.60;;;;;;5053257;28;20504;-78
2021/05/10 06:20:50;;;;;;;3.87;3.30;;;20.70;75.70;;;;;;5052223;28;20561;-78
2021/05/10 06:23:15;;;;;;;4.10;3.70;;;20.70;75.50;;;;;;5053080;28;20968;-78
2021/05/10 06:25:41;;;;;;;3.00;2.80;;;20.70;75.90;;;;;;5053005;28;20491;-78
2021/05/10 06:28:07;;;;;;;3.33;3.03;;;20.70;75.50;;;;;;5053494;28;20173;-78
2021/05/10 06:30:33;;;;;;;4.23;3.63;;;20.60;75.10;;;;;;5035433;28;20177;-79
2021/05/10 06:32:58;;;;;;;3.87;3.57;;;20.60;75.70;;;;;;5053761;28;20531;-78
2021/05/10 06:35:24;;;;;;;6.87;3.53;;;20.60;76.30;;;;;;5035614;28;20181;-78
2021/05/10 06:37:50;;;;;;;3.90;3.60;;;20.60;75.90;;;;;;5052167;28;20185;-78
2021/05/10 06:40:16;;;;;;;3.63;3.43;;;20.50;76.60;;;;;;5053142;28;20275;-78
2021/05/10 06:42:42;;;;;;;3.80;3.50;;;20.50;76.40;;;;;;5034791;28;20288;-78
2021/05/10 06:45:08;;;;;;;5.73;3.73;;;20.50;76.90;;;;;;5052925;28;20424;-78
2021/05/10 06:47:44;;;;;;;4.30;4.10;;;20.50;76.60;;;;;;5035002;28;20572;-80
2021/05/10 06:50:11;;;;;;;3.50;3.33;;;20.60;77.70;;;;;;5053199;28;20457;-78
2021/05/10 06:52:38;;;;;;;3.80;3.60;;;20.60;77.20;;;;;;5018439;28;20444;-79
2021/05/10 06:55:05;;;;;;;3.77;3.47;;;20.50;76.50;;;;;;5035450;28;20424;-78
2021/05/10 06:57:31;;;;;;;3.80;3.60;;;20.50;77.20;;;;;;5035345;28;20892;-78
2021/05/10 06:59:57;;;;;;;4.43;3.63;;;20.40;77.50;;;;;;5052681;28;20431;-78
2021/05/10 07:02:24;;;;;;;3.90;3.70;;;20.50;77.70;;;;;;5053013;28;20563;-78
2021/05/10 07:04:49;;;;;;;4.33;4.00;;;20.30;76.90;;;;;;5034010;28;20833;-78
2021/05/10 07:07:15;;;;;;;4.47;4.27;;;20.40;77.90;;;;;;5034479;28;20424;-77
2021/05/10 07:09:42;;;;;;;3.90;3.70;;;20.40;77.60;;;;;;5050086;28;20412;-74
2021/05/10 07:12:08;;;;;;;4.27;3.90;;;20.50;78.20;;;;;;5034968;28;20772;-73
2021/05/10 07:14:34;;;;;;;4.37;4.07;;;20.60;78.40;;;;;;5033695;28;20420;-74
2021/05/10 07:16:59;;;;;;;4.30;4.00;;;20.70;77.70;;;;;;5051979;28;20439;-74
2021/05/10 07:19:26;;;;;;;4.50;4.20;;;20.60;77.60;;;;;;5052948;28;20181;-74
2021/05/10 07:21:52;;;;;;;3.60;3.43;;;20.60;79.00;;;;;;5052273;28;20205;-73
2021/05/10 07:24:18;;;;;;;3.90;3.60;;;20.70;78.20;;;;;;5052624;28;20510;-73
2021/05/10 07:26:47;;;;;;;3.97;3.67;;;20.70;78.20;;;;;;5052197;28;20439;-73
2021/05/10 07:29:12;;;;;;;3.47;3.20;;;20.70;77.70;;;;;;5052782;28;20470;-74
2021/05/10 07:31:38;;;;;;;3.70;3.23;;;20.80;79.00;;;;;;5052311;28;20424;-75
2021/05/10 07:34:04;;;;;;;3.80;3.50;;;20.90;77.10;;;;;;5052747;28;20228;-75
2021/05/10 07:36:30;;;;;;;3.77;3.57;;;21.10;77.50;;;;;;5052319;28;20261;-74
2021/05/10 07:38:56;;;;;;;3.37;3.07;;;21.30;76.60;;;;;;5051977;28;20481;-74
2021/05/10 07:41:22;;;;;;;3.70;3.27;;;21.40;75.20;;;;;;5052195;28;20174;-74
2021/05/10 07:43:47;;;;;;;3.80;3.50;;;21.50;74.50;;;;;;5051256;28;20508;-76
2021/05/10 07:46:13;;;;;;;3.60;3.30;;;21.60;73.90;;;;;;5034345;28;20189;-76
2021/05/10 07:48:39;;;;;;;3.60;3.30;;;21.80;73.60;;;;;;5052036;28;20401;-73
2021/05/10 07:51:06;;;;;;;4.60;4.20;;;21.90;73.00;;;;;;5052413;28;20209;-73
2021/05/10 07:53:32;;;;;;;3.77;3.33;;;22.10;73.40;;;;;;5052148;28;20209;-73
2021/05/10 07:55:58;;;;;;;3.47;3.27;;;22.20;72.60;;;;;;5051429;28;20782;-73
2021/05/10 07:58:25;;;;;;;3.50;3.30;;;22.30;70.60;;;;;;5052145;28;20197;-74
2021/05/10 08:00:57;;;;;;;3.73;3.40;;;22.40;69.70;;;;;;5051603;28;20189;-74
2021/05/10 08:03:26;;;;;;;5.40;3.10;;;22.50;69.50;;;;;;5052322;28;20483;-74
2021/05/10 08:05:52;;;;;;;3.40;3.10;;;22.60;68.40;;;;;;5051672;28;20759;-74
2021/05/10 08:08:22;;;;;;;3.43;3.23;;;22.50;69.70;;;;;;5052105;28;20435;-74
2021/05/10 08:10:48;;;;;;;3.80;3.50;;;22.40;69.50;;;;;;5051670;28;20248;-74
2021/05/10 08:13:14;;;;;;;3.57;3.33;;;22.40;69.20;;;;;;5052047;28;20523;-74
2021/05/10 08:15:40;;;;;;;3.47;3.37;;;22.50;69.70;;;;;;5050552;28;20428;-74
2021/05/10 08:18:06;;;;;;;4.10;3.90;;;22.60;69.90;;;;;;5051732;28;20174;-77
2021/05/10 08:20:32;;;;;;;3.30;3.10;;;22.60;69.40;;;;;;5052401;28;20253;-74
2021/05/10 08:22:58;;;;;;;3.03;2.93;;;22.60;69.10;;;;;;5051181;28;20563;-75
2021/05/10 08:25:24;;;;;;;4.00;3.70;;;22.50;69.70;;;;;;5051843;28;20305;-74
2021/05/10 08:27:50;;;;;;;4.17;3.43;;;22.50;70.70;;;;;;5050694;28;20515;-74
2021/05/10 08:30:17;;;;;;;3.13;2.93;;;22.40;69.30;;;;;;5052483;28;20496;-74
2021/05/10 08:32:43;;;;;;;3.60;3.40;;;22.30;69.50;;;;;;5050295;28;20424;-75
2021/05/10 08:35:10;;;;;;;3.67;3.40;;;22.40;69.80;;;;;;5052270;28;20466;-74
2021/05/10 08:37:37;;;;;;;3.90;3.60;;;22.30;69.10;;;;;;5052137;28;20448;-74
2021/05/10 08:40:04;;;;;;;3.33;3.13;;;22.20;69.20;;;;;;5052102;28;20514;-75
2021/05/10 08:42:30;;;;;;;3.70;3.50;;;22.20;69.60;;;;;;5037141;28;20501;-74
2021/05/10 08:44:56;;;;;;;3.97;3.70;;;22.20;70.50;;;;;;5054815;28;20428;-75
2021/05/10 08:47:31;;;;;;;3.83;3.53;;;22.20;70.80;;;;;;5055558;28;20177;-74
2021/05/10 08:49:58;;;;;;;5.33;3.43;;;22.10;70.70;;;;;;5055200;28;20412;-74
2021/05/10 08:52:24;;;;;;;3.40;3.20;;;22.10;71.40;;;;;;5055482;28;20439;-74
2021/05/10 08:54:50;;;;;;;3.13;3.00;;;22.30;72.00;;;;;;5055182;28;20420;-74
2021/05/10 08:57:15;;;;;;;3.37;3.07;;;22.40;71.90;;;;;;5054975;28;20178;-76
2021/05/10 08:59:45;;;;;;;3.17;3.00;;;22.60;72.40;;;;;;5055385;28;20185;-75
2021/05/10 09:02:11;;;;;;;3.43;3.07;;;22.70;71.00;;;;;;5055112;28;20212;-75
2021/05/10 09:04:38;;;;;;;3.33;3.13;;;22.90;73.50;;;;;;5055278;28;20448;-75
2021/05/10 09:07:11;;;;;;;3.03;2.93;;;23.00;69.50;;;;;;5046085;28;20502;-74
2021/05/10 09:10:00;;;;;;;3.30;3.10;;;22.90;69.60;;;;;;5055230;28;20428;-74
2021/05/10 09:12:46;;;;;;;3.13;2.87;;;22.60;70.00;;;;;;5053858;28;20416;-74
2021/05/10 09:15:32;;;;;;;3.37;3.20;;;22.60;70.80;;;;;;5055089;28;20514;-74
2021/05/10 09:18:01;;;;;;;3.03;2.93;;;22.50;71.00;;;;;;5053970;28;20412;-75
2021/05/10 09:20:29;;;;;;;3.47;3.27;;;22.40;71.40;;;;;;5054527;28;20428;-75
2021/05/10 09:23:01;;;;;;;2.93;2.83;;;22.40;73.20;;;;;;5046683;28;20951;-74
2021/05/10 09:25:34;;;;;;;4.20;3.90;;;22.20;72.30;;;;;;5053755;28;20496;-74
2021/05/10 09:28:11;;;;;;;3.97;3.67;;;22.20;73.70;;;;;;5053776;28;21363;-75
2021/05/10 09:30:38;;;;;;;2.67;2.57;;;22.10;73.60;;;;;;5054317;28;20412;-74
2021/05/10 09:33:04;;;;;;;2.83;2.73;;;22.00;73.20;;;;;;5054416;28;20424;-74
2021/05/10 09:35:31;;;;;;;3.27;3.00;;;21.90;74.30;;;;;;5054484;28;20749;-74
2021/05/10 09:38:06;;;;;;;2.53;2.43;;;21.80;72.50;;;;;;5054264;28;20174;-74
2021/05/10 09:40:44;;;;;;;2.50;2.30;;;21.60;73.00;;;;;;5054672;28;20457;-74
2021/05/10 09:43:13;;;;;;;2.10;2.00;;;21.50;73.10;;;;;;5054931;28;20497;-74
2021/05/10 09:45:52;;;;;;;2.67;2.47;;;21.50;74.50;;;;;;5054297;28;20424;-74
2021/05/10 09:48:24;;;;;;;2.37;2.17;;;21.50;73.40;;;;;;5032979;28;20432;-74
2021/05/10 09:50:51;;;;;;;1.87;1.77;;;21.50;73.00;;;;;;5054276;28;20470;-75
2021/05/10 09:53:27;;;;;;;1.93;1.70;;;21.50;73.10;;;;;;5053832;28;20423;-74
2021/05/10 09:55:54;;;;;;;1.67;1.60;;;21.60;74.40;;;;;;5053806;28;20473;-75
2021/05/10 09:58:22;;;;;;;2.40;2.20;;;21.70;75.00;;;;;;5054647;28;20417;-74
2021/05/10 10:00:56;;;;;;;2.10;1.90;;;21.70;73.10;;;;;;5053499;28;20760;-75
2021/05/10 10:03:30;;;;;;;1.80;1.70;;;21.80;74.30;;;;;;5054394;28;20854;-74
2021/05/10 10:05:58;;;;;;;2.00;1.90;;;21.90;73.60;;;;;;5053955;28;20393;-75
2021/05/10 10:08:25;;;;;;;2.17;2.10;;;22.00;72.90;;;;;;5054110;28;20489;-74
2021/05/10 10:10:51;;;;;;;2.03;1.93;;;22.10;71.90;;;;;;5035578;28;20424;-74
2021/05/10 10:13:20;;;;;;;1.80;1.70;;;22.00;70.50;;;;;;5053985;28;20440;-74
2021/05/10 10:15:47;;;;;;;1.83;1.73;;;22.00;71.30;;;;;;5052958;28;20424;-75
2021/05/10 10:18:17;;;;;;;1.70;1.70;;;22.10;71.10;;;;;;5053931;28;20842;-75
2021/05/10 10:20:44;;;;;;;2.00;1.90;;;22.10;70.80;;;;;;5054156;28;20475;-75
2021/05/10 10:23:12;;;;;;;2.50;2.30;;;22.20;70.40;;;;;;5053896;28;20460;-74
2021/05/10 10:25:39;;;;;;;2.67;2.00;;;22.20;70.80;;;;;;5053605;28;20420;-75
2021/05/10 10:28:06;;;;;;;4.90;2.53;;;22.30;72.30;;;;;;5035416;28;20424;-74
2021/05/10 10:30:33;;;;;;;2.20;2.17;;;22.30;70.50;;;;;;5053784;28;20452;-75
2021/05/10 10:33:07;;;;;;;2.10;2.00;;;22.30;71.30;;;;;;5053135;28;20428;-75
2021/05/10 10:35:37;;;;;;;2.20;2.10;;;22.30;70.00;;;;;;5053329;28;20404;-75
2021/05/10 10:38:05;;;;;;;2.47;2.33;;;22.30;69.80;;;;;;5033317;28;20417;-74
2021/05/10 10:40:31;;;;;;;2.23;2.13;;;22.20;69.40;;;;;;5033117;28;20405;-76
2021/05/10 10:43:23;;;;;;;2.20;2.20;;;22.10;69.90;;;;;;5053143;28;20554;-75
2021/05/10 10:46:25;;;;;;;2.40;2.30;;;22.10;70.00;;;;;;5040663;28;20193;-81
2021/05/10 10:48:53;;;;;;;1.40;1.40;;;22.00;70.10;;;;;;5014853;28;20409;-78
2021/05/10 10:51:19;;;;;;;3.07;2.97;;;22.00;69.80;;;;;;5043044;28;20487;-77
2021/05/10 10:53:55;;;;;;;2.50;2.40;;;22.00;69.50;;;;;;5053296;28;20408;-82
2021/05/10 10:56:52;;;;;;;2.47;2.33;;;22.00;70.50;;;;;;5035335;28;20420;-77
2021/05/10 10:59:30;;;;;;;2.30;2.20;;;21.90;70.90;;;;;;5035291;28;20503;-77
2021/05/10 11:01:57;;;;;;;1.77;1.77;;;21.60;69.80;;;;;;5051944;28;20455;-77
2021/05/10 11:04:29;;;;;;;2.23;1.67;;;21.50;71.30;;;;;;5034167;28;20421;-76
2021/05/10 11:06:56;;;;;;;2.03;1.90;;;21.40;71.40;;;;;;5034381;28;20400;-77
2021/05/10 11:09:50;;;;;;;3.00;2.90;;;21.20;71.40;;;;;;5034084;28;20432;-77
2021/05/10 11:12:48;;;;;;;1.80;1.80;;;21.10;73.00;;;;;;5035059;28;20404;-75
2021/05/10 11:15:32;;;;;;;2.30;2.20;;;21.20;73.00;;;;;;5034342;28;20459;-76
2021/05/10 11:17:59;;;;;;;1.80;1.80;;;21.20;71.60;;;;;;5051823;28;20420;-78
2021/05/10 11:20:45;;;;;;;2.10;2.00;;;21.30;72.20;;;;;;5052923;28;20447;-77
2021/05/10 11:23:26;;;;;;;1.80;1.70;;;21.20;72.20;;;;;;5051534;28;20447;-75
2021/05/10 11:26:04;;;;;;;2.47;2.37;;;21.10;72.40;;;;;;5051931;28;20404;-76
2021/05/10 11:28:29;;;;;;;2.30;2.20;;;21.10;71.80;;;;;;5052332;28;20420;-76
2021/05/10 11:31:07;;;;;;;3.20;3.10;;;21.10;71.00;;;;;;5051986;28;20428;-75
2021/05/10 11:33:51;;;;;;;2.70;2.60;;;21.10;72.70;;;;;;5052297;28;20176;-75
2021/05/10 11:36:27;;;;;;;3.97;3.77;;;21.30;74.40;;;;;;5052292;28;20776;-75
2021/05/10 11:38:58;;;;;;;3.30;3.20;;;21.40;75.30;;;;;;5052294;28;20396;-76
2021/05/10 11:41:43;;;;;;;2.70;2.60;;;21.50;73.70;;;;;;5052523;28;20475;-76
2021/05/10 11:44:24;;;;;;;2.40;2.30;;;21.60;71.50;;;;;;5051824;28;20428;-75
2021/05/10 11:46:55;;;;;;;2.20;2.20;;;21.70;71.50;;;;;;5051634;28;20416;-76
2021/05/10 11:49:31;;;;;;;2.73;2.63;;;21.70;71.00;;;;;;5052448;28;20765;-76
2021/05/10 11:52:14;;;;;;;2.33;2.23;;;21.80;69.20;;;;;;5051252;28;20511;-76
2021/05/10 11:54:45;;;;;;;2.00;1.90;;;21.80;69.60;;;;;;5052152;28;20424;-76
2021/05/10 11:57:13;;;;;;;2.57;2.47;;;21.80;71.30;;;;;;5047586;28;20408;-76
2021/05/10 11:59:46;;;;;;;2.00;1.90;;;21.90;68.80;;;;;;5051580;28;20413;-76
2021/05/10 12:02:22;;;;;;;2.00;1.90;;;22.00;69.80;;;;;;5051870;28;20444;-76
2021/05/10 12:04:55;;;;;;;2.30;2.10;;;22.00;69.00;;;;;;5052300;28;20400;-75
2021/05/10 12:07:22;;;;;;;2.20;2.10;;;22.10;66.70;;;;;;5052538;28;20455;-76
2021/05/10 12:09:57;;;;;;;1.90;1.90;;;22.10;67.00;;;;;;5052070;28;20429;-76
2021/05/10 12:12:31;;;;;;;3.23;2.93;;;22.20;68.90;;;;;;5052512;28;20400;-75
2021/05/10 12:14:59;;;;;;;2.50;2.40;;;22.40;69.60;;;;;;5051378;28;20495;-75
2021/05/10 12:17:27;;;;;;;2.63;2.50;;;22.50;68.00;;;;;;5054947;28;20427;-76
2021/05/10 12:20:06;;;;;;;2.10;2.00;;;22.50;66.50;;;;;;5064835;28;20831;-76
2021/05/10 12:22:42;;;;;;;2.20;1.90;;;22.60;64.80;;;;;;5036525;28;20436;-76
2021/05/10 12:25:14;;;;;;;1.77;1.73;;;22.60;65.70;;;;;;5045928;28;21030;-76
2021/05/10 12:27:41;;;;;;;2.40;2.30;;;22.60;65.90;;;;;;5055474;28;20935;-76
2021/05/10 12:30:14;;;;;;;1.87;1.80;;;22.60;66.00;;;;;;5055165;28;20432;-76
2021/05/10 12:32:41;;;;;;;2.00;1.90;;;22.70;65.90;;;;;;5051757;28;20412;-75
2021/05/10 12:35:09;;;;;;;1.90;1.80;;;22.80;68.00;;;;;;5055444;28;20452;-77
2021/05/10 12:37:46;;;;;;;1.67;1.60;;;22.80;66.50;;;;;;5056260;28;20404;-74
2021/05/10 12:40:18;;;;;;;2.20;2.00;;;22.90;65.70;;;;;;5055438;28;20434;-74
2021/05/10 12:42:46;;;;;;;2.20;2.10;;;22.90;66.40;;;;;;5056187;28;20443;-74
2021/05/10 12:45:14;;;;;;;2.80;2.60;;;22.80;66.20;;;;;;5054881;28;20438;-74
2021/05/10 12:47:50;;;;;;;2.60;2.50;;;22.80;65.00;;;;;;5038172;28;20491;-74
2021/05/10 12:50:33;;;;;;;2.50;2.40;;;22.70;64.10;;;;;;5055208;28;20412;-74
2021/05/10 12:53:02;;;;;;;3.07;2.50;;;22.50;63.50;;;;;;5036850;28;20431;-74
2021/05/10 12:55:29;;;;;;;2.43;2.33;;;22.40;64.60;;;;;;5055695;28;20423;-75
2021/05/10 12:57:55;;;;;;;2.43;2.33;;;22.30;65.00;;;;;;5037037;28;20780;-78
2021/05/10 13:00:37;;;;;;;2.53;2.43;;;22.30;65.50;;;;;;5054694;28;20416;-75
2021/05/10 13:03:05;;;;;;;2.80;2.70;;;22.30;66.20;;;;;;5054366;28;20859;-75
2021/05/10 13:05:34;;;;;;;2.27;2.17;;;22.30;66.70;;;;;;5055296;28;20423;-74